createdAt,value
2018-12-13T00:01:09.438Z,25.20
2018-12-13T00:03:38.795Z,23.05
2018-12-13T00:06:08.116Z,24.00
2018-12-13T00:08:37.629Z,22.65
2018-12-13T00:11:07.007Z,20.25
2018-12-13T00:13:36.279Z,22.05
2018-12-13T00:16:05.520Z,23.45
2018-12-13T00:18:34.931Z,23.00
2018-12-13T00:21:04.334Z,21.60
2018-12-13T00:23:33.640Z,26.00
2018-12-13T00:26:03.156Z,22.13
2018-12-13T00:28:32.528Z,22.37
2018-12-13T00:31:01.852Z,26.33
2018-12-13T00:33:31.252Z,20.77
2018-12-13T00:36:00.664Z,21.87
2018-12-13T00:38:30.244Z,22.45
2018-12-13T00:40:59.752Z,23.30
2018-12-13T00:43:29.269Z,22.10
2018-12-13T00:45:58.660Z,24.57
2018-12-13T00:48:27.977Z,22.75
2018-12-13T00:50:57.275Z,23.10
2018-12-13T00:53:26.556Z,22.32
2018-12-13T00:55:55.801Z,20.25
2018-12-13T00:58:25.264Z,19.48
2018-12-13T01:00:56.687Z,21.82
2018-12-13T01:03:26.043Z,19.67
2018-12-13T01:05:55.350Z,21.75
2018-12-13T01:08:25.112Z,20.40
2018-12-13T01:10:54.347Z,19.40
2018-12-13T01:13:23.849Z,20.92
2018-12-13T01:15:53.280Z,20.75
2018-12-13T01:18:22.521Z,18.10
2018-12-13T01:20:51.787Z,22.90
2018-12-13T01:23:21.255Z,18.82
2018-12-13T01:25:50.582Z,18.62
2018-12-13T01:28:19.878Z,18.80
2018-12-13T01:30:49.281Z,20.62
2018-12-13T01:33:18.587Z,17.67
2018-12-13T01:35:48.063Z,21.40
2018-12-13T01:38:17.391Z,19.32
2018-12-13T01:40:46.685Z,18.60
2018-12-13T01:43:15.890Z,18.52
2018-12-13T01:45:45.175Z,21.40
2018-12-13T01:48:14.499Z,21.90
2018-12-13T01:50:43.936Z,19.85
2018-12-13T01:53:13.291Z,17.00
2018-12-13T01:55:42.584Z,18.75
2018-12-13T01:58:12.009Z,16.27
2018-12-13T02:00:41.398Z,17.30
2018-12-13T02:03:10.699Z,19.45
2018-12-13T02:05:40.099Z,17.80
2018-12-13T02:08:09.412Z,15.60
2018-12-13T02:10:38.926Z,21.95
2018-12-13T02:13:08.404Z,20.35
2018-12-13T02:15:37.738Z,16.67
2018-12-13T02:18:07.129Z,19.05
2018-12-13T02:20:36.430Z,17.90
2018-12-13T02:23:05.829Z,19.95
2018-12-13T02:25:35.131Z,20.20
2018-12-13T02:28:04.342Z,20.72
2018-12-13T02:30:33.626Z,18.17
2018-12-13T02:33:02.968Z,18.27
2018-12-13T02:35:32.140Z,16.10
2018-12-13T02:38:01.521Z,20.45
2018-12-13T02:40:30.840Z,17.15
2018-12-13T02:43:00.248Z,16.40
2018-12-13T02:45:29.560Z,17.00
2018-12-13T02:47:58.960Z,15.20
2018-12-13T02:50:28.255Z,16.10
2018-12-13T02:52:57.561Z,18.17
2018-12-13T02:55:26.960Z,19.27
2018-12-13T02:57:56.366Z,13.95
2018-12-13T03:00:25.751Z,15.32
2018-12-13T03:02:55.069Z,16.85
2018-12-13T03:05:24.356Z,18.70
2018-12-13T03:07:53.652Z,20.30
2018-12-13T03:10:23.055Z,17.17
2018-12-13T03:12:52.456Z,15.63
2018-12-13T03:15:21.956Z,18.30
2018-12-13T03:17:51.278Z,15.35
2018-12-13T03:20:20.555Z,20.90
2018-12-13T03:22:49.770Z,12.47
2018-12-13T03:25:18.950Z,13.40
2018-12-13T03:27:48.175Z,14.98
2018-12-13T03:30:17.481Z,14.83
2018-12-13T03:32:46.682Z,14.40
2018-12-13T03:35:15.981Z,14.25
2018-12-13T03:37:45.267Z,14.80
2018-12-13T03:40:14.667Z,12.68
2018-12-13T03:42:44.075Z,17.55
2018-12-13T03:45:13.391Z,20.10
2018-12-13T03:47:42.775Z,13.22
2018-12-13T03:50:11.977Z,12.20
2018-12-13T03:52:41.292Z,11.55
2018-12-13T03:55:10.687Z,24.80
2018-12-13T03:57:39.884Z,13.48
2018-12-13T04:00:09.096Z,11.35
2018-12-13T04:02:38.383Z,14.28
2018-12-13T04:05:07.690Z,13.70
2018-12-13T04:07:37.183Z,13.98
2018-12-13T04:10:06.651Z,14.75
2018-12-13T04:12:35.902Z,13.03
2018-12-13T04:15:05.417Z,10.88
2018-12-13T04:17:34.808Z,12.93
2018-12-13T04:20:04.202Z,12.47
2018-12-13T04:22:33.320Z,12.03
2018-12-13T04:25:02.705Z,12.73
2018-12-13T04:27:31.696Z,11.25
2018-12-13T04:30:00.913Z,11.45
2018-12-13T04:32:30.211Z,12.30
2018-12-13T04:34:59.521Z,10.43
2018-12-13T04:37:35.124Z,9.13
2018-12-13T04:40:00.202Z,9.55
2018-12-13T04:42:29.560Z,11.12
2018-12-13T04:44:58.864Z,10.13
2018-12-13T04:47:28.047Z,11.48
2018-12-13T04:49:57.248Z,10.85
2018-12-13T04:52:26.465Z,12.28
2018-12-13T04:54:55.812Z,10.30
2018-12-13T04:57:25.160Z,10.28
2018-12-13T04:59:54.551Z,11.12
2018-12-13T05:02:23.891Z,9.75
2018-12-13T05:04:53.271Z,11.25
2018-12-13T05:07:22.568Z,14.05
2018-12-13T05:09:51.874Z,10.72
2018-12-13T05:12:21.389Z,14.15
2018-12-13T05:14:50.637Z,14.53
2018-12-13T05:17:19.765Z,13.18
2018-12-13T05:19:49.376Z,12.82
2018-12-13T05:22:18.584Z,13.65
2018-12-13T05:24:47.863Z,10.93
2018-12-13T05:27:17.220Z,13.15
2018-12-13T05:29:46.414Z,12.70
2018-12-13T05:32:15.879Z,12.63
2018-12-13T05:34:44.991Z,10.95
2018-12-13T05:37:14.495Z,11.93
2018-12-13T05:39:43.787Z,15.15
2018-12-13T05:42:12.892Z,12.73
2018-12-13T05:44:42.163Z,9.75
2018-12-13T05:47:11.485Z,11.63
2018-12-13T05:49:40.604Z,13.03
2018-12-13T05:52:09.783Z,10.80
2018-12-13T05:54:39.093Z,11.88
2018-12-13T05:57:08.283Z,12.23
2018-12-13T05:59:37.498Z,12.28
2018-12-13T06:02:06.608Z,9.60
2018-12-13T06:04:35.901Z,11.45
2018-12-13T06:07:05.137Z,11.83
2018-12-13T06:09:34.375Z,11.05
2018-12-13T06:12:03.803Z,12.80
2018-12-13T06:14:33.093Z,11.08
2018-12-13T06:17:02.485Z,20.57
2018-12-13T06:19:31.718Z,14.87
2018-12-13T06:22:00.879Z,17.52
2018-12-13T06:24:30.098Z,16.50
2018-12-13T06:26:59.393Z,17.92
2018-12-13T06:29:28.604Z,22.00
2018-12-13T06:31:57.887Z,31.55
2018-12-13T06:34:27.136Z,50.00
2018-12-13T06:36:56.395Z,42.90
2018-12-13T06:39:25.919Z,45.00
2018-12-13T06:41:55.200Z,51.42
2018-12-13T06:44:24.606Z,48.55
2018-12-13T06:46:54.207Z,41.00
2018-12-13T06:49:23.521Z,42.85
2018-12-13T06:51:52.822Z,51.88
2018-12-13T06:54:22.163Z,50.15
2018-12-13T06:56:51.515Z,55.12
2018-12-13T06:59:20.916Z,52.00
2018-12-13T07:01:50.316Z,57.55
2018-12-13T07:04:19.614Z,68.07
2018-12-13T07:06:48.920Z,85.55
2018-12-13T07:09:18.240Z,93.75
2018-12-13T07:11:47.531Z,74.72
2018-12-13T07:14:16.836Z,70.08
2018-12-13T07:16:46.135Z,64.72
2018-12-13T07:19:15.328Z,72.62
2018-12-13T07:21:44.534Z,68.35
2018-12-13T07:24:13.840Z,67.42
2018-12-13T07:26:43.147Z,75.30
2018-12-13T07:29:12.476Z,75.20
2018-12-13T07:31:42.108Z,68.95
2018-12-13T07:34:11.455Z,111.30
2018-12-13T07:36:40.880Z,79.67
2018-12-13T07:39:10.383Z,89.42
2018-12-13T07:41:39.701Z,120.53
2018-12-13T07:44:09.156Z,119.87
2018-12-13T07:46:38.564Z,132.67
2018-12-13T07:49:07.976Z,131.60
2018-12-13T07:51:37.376Z,133.05
2018-12-13T07:54:06.689Z,133.32
2018-12-13T07:56:35.980Z,136.25
2018-12-13T07:59:05.496Z,138.85
2018-12-13T08:01:34.893Z,114.45
2018-12-13T08:04:04.296Z,142.85
2018-12-13T08:06:33.607Z,134.22
2018-12-13T08:09:03.255Z,117.20
2018-12-13T08:11:32.587Z,125.85
2018-12-13T08:14:02.047Z,137.10
2018-12-13T08:16:31.423Z,147.10
2018-12-13T08:19:00.733Z,138.30
2018-12-13T08:21:30.007Z,138.70
2018-12-13T08:23:59.275Z,138.22
2018-12-13T08:26:28.506Z,150.42
2018-12-13T08:28:57.916Z,151.87
2018-12-13T08:31:27.343Z,161.05
2018-12-13T08:33:56.557Z,150.05
2018-12-13T08:36:25.843Z,150.42
2018-12-13T08:38:55.337Z,145.20
2018-12-13T08:41:24.680Z,154.57
2018-12-13T08:43:54.011Z,149.75
2018-12-13T08:46:23.451Z,158.93
2018-12-13T08:48:53.016Z,153.42
2018-12-13T08:51:22.365Z,151.45
2018-12-13T08:53:51.755Z,154.97
2018-12-13T08:56:21.167Z,154.80
2018-12-13T08:58:50.456Z,173.38
2018-12-13T09:01:19.882Z,190.30
2018-12-13T09:03:49.233Z,202.45
2018-12-13T09:06:18.474Z,187.00
2018-12-13T09:08:47.735Z,201.98
2018-12-13T09:11:17.052Z,210.48
2018-12-13T09:13:46.459Z,205.83
2018-12-13T09:16:15.781Z,219.13
2018-12-13T09:18:45.111Z,202.70
2018-12-13T09:21:14.409Z,221.35
2018-12-13T09:23:43.672Z,205.32
2018-12-13T09:26:13.091Z,234.62
2018-12-13T09:28:42.455Z,206.45
2018-12-13T09:31:11.604Z,233.23
2018-12-13T09:33:41.082Z,177.60
2018-12-13T09:36:10.588Z,232.72
2018-12-13T09:38:40.111Z,237.78
2018-12-13T09:41:09.624Z,247.90
2018-12-13T09:43:38.913Z,247.02
2018-12-13T09:46:08.115Z,247.02
2018-12-13T09:48:37.412Z,258.57
2018-12-13T09:51:06.824Z,244.62
2018-12-13T09:53:36.202Z,231.30
2018-12-13T09:56:05.512Z,245.85
2018-12-13T09:58:34.821Z,193.60
2018-12-13T10:01:04.312Z,188.20
2018-12-13T10:03:33.529Z,210.93
2018-12-13T10:06:02.735Z,204.18
2018-12-13T10:08:31.928Z,183.82
2018-12-13T10:11:01.128Z,162.05
2018-12-13T10:13:30.619Z,215.12
2018-12-13T10:15:59.829Z,224.05
2018-12-13T10:18:29.216Z,181.37
2018-12-13T10:20:58.424Z,216.33
2018-12-13T10:23:27.824Z,165.62
2018-12-13T10:25:59.638Z,173.78
2018-12-13T10:28:28.386Z,211.18
2018-12-13T10:30:57.785Z,205.37
2018-12-13T10:33:27.072Z,210.02
2018-12-13T10:35:56.392Z,203.73
2018-12-13T10:38:25.802Z,199.32
2018-12-13T10:40:54.996Z,199.00
2018-12-13T10:43:24.185Z,204.72
2018-12-13T10:45:53.491Z,221.57
2018-12-13T10:48:22.780Z,221.22
2018-12-13T10:50:52.009Z,219.82
2018-12-13T10:53:21.392Z,235.93
2018-12-13T10:55:50.688Z,242.20
2018-12-13T10:58:19.983Z,235.50
2018-12-13T11:01:58.226Z,245.65
2018-12-13T11:04:27.580Z,241.90
2018-12-13T11:06:56.792Z,235.70
2018-12-13T11:09:26.100Z,241.65
2018-12-13T11:11:55.448Z,238.10
2018-12-13T11:14:24.836Z,248.87
2018-12-13T11:16:54.128Z,246.25
2018-12-13T11:19:23.404Z,242.10
2018-12-13T11:21:52.793Z,250.57
2018-12-13T11:24:22.078Z,256.40
2018-12-13T11:26:51.449Z,263.18
2018-12-13T11:29:34.480Z,252.10
2018-12-13T11:32:03.968Z,270.93
2018-12-13T11:34:33.385Z,255.37
2018-12-13T11:37:02.677Z,273.73
2018-12-13T11:39:31.976Z,128.25
2018-12-13T11:42:01.154Z,137.50
2018-12-13T11:44:30.463Z,196.35
2018-12-13T11:46:59.963Z,195.47
2018-12-13T11:49:29.347Z,238.87
2018-12-13T11:51:58.642Z,185.30
2018-12-13T11:54:39.994Z,233.45
2018-12-13T11:57:09.256Z,230.43
2018-12-13T11:59:38.771Z,219.87
2018-12-13T12:02:08.191Z,217.80
2018-12-13T12:04:37.378Z,224.73
2018-12-13T12:07:06.683Z,271.20
2018-12-13T12:09:36.164Z,272.05
2018-12-13T12:12:05.589Z,274.65
2018-12-13T12:14:34.887Z,272.90
2018-12-13T12:17:04.310Z,261.00
2018-12-13T12:19:33.572Z,282.20
2018-12-13T12:22:02.892Z,296.75
2018-12-13T12:24:32.270Z,226.35
2018-12-13T12:27:01.590Z,165.82
2018-12-13T12:29:31.023Z,282.45
2018-12-13T12:32:00.303Z,272.05
2018-12-13T12:34:29.585Z,274.40
2018-12-13T12:36:58.892Z,249.05
2018-12-13T12:39:28.307Z,190.18
2018-12-13T12:41:57.494Z,230.92
2018-12-13T12:44:30.736Z,213.22
2018-12-13T12:47:00.115Z,170.70
2018-12-13T12:49:29.408Z,172.93
2018-12-13T12:51:58.716Z,232.85
2018-12-13T12:54:27.895Z,234.92
2018-12-13T12:56:57.413Z,248.97
2018-12-13T12:59:26.783Z,251.47
2018-12-13T13:01:56.117Z,247.12
2018-12-13T13:04:25.510Z,241.82
2018-12-13T13:06:54.913Z,211.62
2018-12-13T13:09:25.221Z,209.67
2018-12-13T13:11:54.755Z,191.03
2018-12-13T13:14:24.031Z,178.65
2018-12-13T13:16:53.239Z,196.85
2018-12-13T13:19:22.647Z,195.53
2018-12-13T13:21:51.853Z,180.55
2018-12-13T13:24:21.258Z,179.90
2018-12-13T13:26:50.763Z,176.65
2018-12-13T13:29:20.152Z,171.05
2018-12-13T13:31:49.327Z,175.70
2018-12-13T13:34:18.651Z,162.62
2018-12-13T13:36:47.592Z,156.40
2018-12-13T13:39:16.955Z,150.38
2018-12-13T13:41:46.148Z,145.32
2018-12-13T13:44:15.816Z,144.00
2018-12-13T13:46:45.216Z,145.40
2018-12-13T13:49:14.555Z,141.03
2018-12-13T13:51:43.864Z,142.40
2018-12-13T13:54:13.215Z,142.00
2018-12-13T13:56:42.607Z,155.43
2018-12-13T13:59:11.901Z,145.30
2018-12-13T14:01:41.181Z,150.42
2018-12-13T14:04:10.492Z,127.87
2018-12-13T14:06:39.825Z,132.35
2018-12-13T14:09:09.099Z,134.87
2018-12-13T14:11:38.488Z,138.77
2018-12-13T14:14:07.884Z,134.55
2018-12-13T14:16:37.235Z,128.95
2018-12-13T14:19:06.492Z,125.85
2018-12-13T14:21:35.836Z,124.62
2018-12-13T14:24:05.101Z,132.30
2018-12-13T14:26:34.295Z,126.02
2018-12-13T14:29:03.700Z,121.47
2018-12-13T14:31:34.608Z,130.07
2018-12-13T14:34:03.930Z,120.80
2018-12-13T14:36:33.246Z,131.90
2018-12-13T14:39:02.701Z,125.90
2018-12-13T14:41:31.951Z,121.77
2018-12-13T14:44:01.247Z,122.13
2018-12-13T14:46:30.559Z,123.65
2018-12-13T14:48:59.847Z,119.47
2018-12-13T14:51:29.263Z,121.57
2018-12-13T14:53:58.555Z,121.25
2018-12-13T14:56:27.844Z,115.95
2018-12-13T14:58:57.060Z,119.37
2018-12-13T15:01:26.877Z,114.88
2018-12-13T15:03:56.468Z,124.00
2018-12-13T15:06:25.859Z,123.10
2018-12-13T15:08:55.197Z,115.25
2018-12-13T15:11:24.575Z,120.02
2018-12-13T15:13:53.905Z,122.60
2018-12-13T15:16:23.187Z,118.42
2018-12-13T15:18:52.391Z,120.05
2018-12-13T15:21:21.693Z,115.12
2018-12-13T15:23:50.913Z,112.12
2018-12-13T15:26:20.379Z,117.03
2018-12-13T15:28:49.703Z,106.78
2018-12-13T15:31:19.096Z,106.72
2018-12-13T15:33:48.505Z,111.12
2018-12-13T15:36:17.803Z,104.45
2018-12-13T15:38:47.199Z,105.65
2018-12-13T15:41:16.406Z,104.60
2018-12-13T15:43:45.647Z,105.30
2018-12-13T15:46:14.800Z,113.77
2018-12-13T15:48:44.200Z,106.87
2018-12-13T15:51:13.591Z,101.82
2018-12-13T15:53:42.905Z,107.22
2018-12-13T15:56:12.295Z,96.95
2018-12-13T15:58:41.518Z,101.25
2018-12-13T16:01:10.911Z,106.25
2018-12-13T16:03:40.231Z,95.45
2018-12-13T16:06:09.608Z,101.60
2018-12-13T16:08:38.892Z,95.62
2018-12-13T16:11:08.102Z,101.07
2018-12-13T16:13:37.335Z,94.15
2018-12-13T16:16:07.426Z,93.35
2018-12-13T16:18:36.700Z,97.35
2018-12-13T16:21:06.050Z,94.95
2018-12-13T16:23:35.444Z,92.65
2018-12-13T16:26:04.731Z,97.37
2018-12-13T16:28:34.048Z,98.82
2018-12-13T16:31:03.240Z,92.97
2018-12-13T16:33:32.457Z,101.38
2018-12-13T16:36:01.880Z,102.20
2018-12-13T16:38:31.145Z,98.75
2018-12-13T16:41:00.357Z,99.55
2018-12-13T16:43:29.651Z,97.80
2018-12-13T16:45:58.855Z,93.92
2018-12-13T16:48:28.202Z,92.17
2018-12-13T16:50:57.554Z,96.75
2018-12-13T16:53:26.971Z,92.75
2018-12-13T16:55:56.360Z,90.75
2018-12-13T16:58:25.471Z,91.22
2018-12-13T17:00:54.863Z,96.95
2018-12-13T17:03:36.652Z,93.82
2018-12-13T17:06:06.800Z,97.08
2018-12-13T17:08:36.080Z,92.05
2018-12-13T17:11:05.592Z,93.27
2018-12-13T17:13:34.822Z,93.72
2018-12-13T17:16:03.989Z,92.25
2018-12-13T17:18:33.314Z,94.07
2018-12-13T17:21:02.854Z,91.57
2018-12-13T17:23:32.395Z,95.20
2018-12-13T17:26:03.242Z,90.47
2018-12-13T17:28:33.983Z,89.00
2018-12-13T17:31:03.493Z,84.62
2018-12-13T17:33:32.889Z,86.35
2018-12-13T17:36:02.273Z,93.10
2018-12-13T17:38:31.589Z,81.87
2018-12-13T17:41:00.978Z,88.37
2018-12-13T17:43:30.179Z,87.37
2018-12-13T17:45:59.905Z,83.87
2018-12-13T17:48:29.102Z,82.60
2018-12-13T17:50:58.306Z,102.20
2018-12-13T17:53:28.007Z,97.90
2018-12-13T17:55:57.708Z,98.58
2018-12-13T17:58:27.020Z,93.10
2018-12-13T18:00:56.319Z,101.87
2018-12-13T18:03:25.820Z,100.60
2018-12-13T18:05:55.014Z,98.58
2018-12-13T18:08:25.121Z,104.60
2018-12-13T18:10:55.140Z,101.33
2018-12-13T18:13:24.567Z,105.90
2018-12-13T18:15:54.065Z,98.27
2018-12-13T18:18:23.283Z,101.05
2018-12-13T18:20:52.581Z,105.75
2018-12-13T18:23:22.863Z,105.35
2018-12-13T18:25:52.094Z,100.53
2018-12-13T18:28:21.298Z,101.62
2018-12-13T18:30:50.906Z,96.20
2018-12-13T18:33:20.476Z,98.10
2018-12-13T18:35:49.941Z,97.55
2018-12-13T18:38:20.446Z,93.85
2018-12-13T18:40:50.274Z,101.05
2018-12-13T18:43:20.341Z,91.40
2018-12-13T18:45:49.695Z,91.55
2018-12-13T18:48:19.239Z,90.55
2018-12-13T18:50:49.859Z,90.30
2018-12-13T18:53:19.376Z,84.15
2018-12-13T18:55:49.574Z,85.62
2018-12-13T18:58:19.067Z,88.65
2018-12-13T19:00:48.447Z,100.90
2018-12-13T19:03:18.085Z,99.47
2018-12-13T19:05:47.790Z,101.30
2018-12-13T19:08:17.249Z,105.78
2018-12-13T19:10:46.961Z,118.08
2018-12-13T19:13:16.260Z,123.95
2018-12-13T19:15:45.921Z,133.57
2018-12-13T19:18:15.318Z,139.07
2018-12-13T19:20:45.621Z,138.35
2018-12-13T19:23:15.661Z,132.47
2018-12-13T19:25:46.405Z,133.03
2018-12-13T19:28:15.749Z,140.35
2018-12-13T19:30:45.184Z,137.62
2018-12-13T19:33:14.464Z,141.15
2018-12-13T19:35:44.711Z,132.63
2018-12-13T19:38:14.155Z,134.37
2018-12-13T19:40:48.360Z,132.78
2018-12-13T19:43:15.346Z,130.90
2018-12-13T19:45:45.293Z,131.93
2018-12-13T19:48:15.053Z,143.47
2018-12-13T19:50:45.247Z,135.93
2018-12-13T19:53:14.801Z,123.97
2018-12-13T19:55:44.352Z,119.50
2018-12-13T19:58:13.548Z,123.72
2018-12-13T20:00:43.300Z,122.92
2018-12-13T20:03:13.060Z,120.92
2018-12-13T20:05:42.504Z,122.37
2018-12-13T20:08:11.991Z,120.55
2018-12-13T20:10:41.748Z,125.78
2018-12-13T20:13:12.245Z,119.82
2018-12-13T20:15:41.724Z,108.90
2018-12-13T20:18:12.655Z,111.03
2018-12-13T20:20:42.188Z,102.00
2018-12-13T20:23:11.404Z,106.17
2018-12-13T20:25:41.068Z,104.90
2018-12-13T20:28:11.418Z,98.40
2018-12-13T20:30:41.096Z,89.67
2018-12-13T20:33:10.248Z,90.35
2018-12-13T20:35:39.591Z,94.83
2018-12-13T20:38:08.917Z,93.47
2018-12-13T20:40:38.332Z,88.10
2018-12-13T20:43:07.623Z,91.20
2018-12-13T20:45:36.932Z,91.30
2018-12-13T20:48:06.319Z,91.67
2018-12-13T20:50:35.539Z,88.55
2018-12-13T20:53:04.860Z,84.25
2018-12-13T20:55:34.588Z,96.22
2018-12-13T20:58:03.940Z,88.58
2018-12-13T21:00:33.248Z,76.60
2018-12-13T21:03:03.147Z,78.62
2018-12-13T21:05:32.567Z,80.20
2018-12-13T21:08:06.647Z,79.90
2018-12-13T21:10:36.184Z,83.90
2018-12-13T21:13:05.507Z,77.75
2018-12-13T21:15:34.804Z,72.87
2018-12-13T21:18:04.275Z,79.27
2018-12-13T21:20:33.693Z,79.72
2018-12-13T21:23:02.980Z,72.45
2018-12-13T21:25:32.310Z,73.47
2018-12-13T21:28:01.700Z,75.42
2018-12-13T21:30:31.028Z,75.08
2018-12-13T21:33:00.623Z,75.28
2018-12-13T21:35:30.220Z,80.80
2018-12-13T21:37:59.645Z,75.40
2018-12-13T21:40:28.925Z,75.47
2018-12-13T21:42:58.239Z,73.62
2018-12-13T21:45:27.636Z,72.60
2018-12-13T21:47:57.137Z,73.50
2018-12-13T21:50:26.635Z,70.25
2018-12-13T21:52:56.035Z,69.25
2018-12-13T21:55:25.247Z,68.67
2018-12-13T21:57:54.752Z,71.15
2018-12-13T22:00:24.147Z,67.27
2018-12-13T22:02:53.484Z,68.80
2018-12-13T22:05:22.871Z,64.97
2018-12-13T22:07:52.174Z,68.47
2018-12-13T22:10:21.571Z,65.78
2018-12-13T22:12:50.883Z,70.37
2018-12-13T22:15:20.204Z,66.92
2018-12-13T22:17:49.667Z,62.90
2018-12-13T22:20:18.989Z,64.62
2018-12-13T22:22:48.288Z,62.50
2018-12-13T22:25:17.609Z,66.28
2018-12-13T22:27:47.076Z,66.57
2018-12-13T22:30:16.497Z,61.98
2018-12-13T22:32:45.990Z,64.65
2018-12-13T22:35:15.399Z,58.83
2018-12-13T22:37:44.803Z,65.90
2018-12-13T22:40:14.125Z,58.48
2018-12-13T22:42:43.344Z,65.35
2018-12-13T22:45:12.807Z,65.45
2018-12-13T22:47:42.228Z,63.05
2018-12-13T22:50:11.541Z,61.55
2018-12-13T22:52:40.927Z,61.30
2018-12-13T22:55:10.256Z,54.83
2018-12-13T22:57:39.724Z,54.60
2018-12-13T23:00:10.636Z,56.53
2018-12-13T23:02:39.980Z,54.83
2018-12-13T23:05:09.296Z,57.93
2018-12-13T23:07:38.562Z,57.15
2018-12-13T23:10:07.891Z,53.35
2018-12-13T23:12:37.379Z,56.28
2018-12-13T23:15:06.780Z,53.70
2018-12-13T23:17:36.224Z,55.20
2018-12-13T23:20:05.534Z,54.50
2018-12-13T23:22:34.821Z,56.88
2018-12-13T23:25:04.284Z,53.17
2018-12-13T23:27:33.719Z,52.60
2018-12-13T23:30:03.140Z,50.43
2018-12-13T23:32:32.441Z,53.48
2018-12-13T23:35:01.732Z,53.65
2018-12-13T23:37:31.201Z,54.73
2018-12-13T23:40:00.711Z,53.00
2018-12-13T23:42:30.114Z,51.48
2018-12-13T23:44:59.559Z,49.00
2018-12-13T23:47:28.858Z,51.20
2018-12-13T23:49:58.321Z,49.40
2018-12-13T23:52:27.823Z,48.83
2018-12-13T23:54:57.297Z,44.88
2018-12-13T23:57:26.643Z,49.18
2018-12-13T23:59:56.060Z,46.88
